createdAt,value
2022-10-01T00:00:04.547Z,10.99
2022-10-01T00:02:30.898Z,11.01
2022-10-01T00:04:57.576Z,10.52
2022-10-01T00:07:24.105Z,10.35
2022-10-01T00:09:50.439Z,10.61
2022-10-01T00:12:16.846Z,11.00
2022-10-01T00:14:44.391Z,10.98
2022-10-01T00:17:10.703Z,10.85
2022-10-01T00:19:37.018Z,10.89
2022-10-01T00:22:03.372Z,10.87
2022-10-01T00:24:29.675Z,10.84
2022-10-01T00:26:56.101Z,10.37
2022-10-01T00:29:22.414Z,10.61
2022-10-01T00:31:49.030Z,10.81
2022-10-01T00:34:15.752Z,10.56
2022-10-01T00:36:42.183Z,10.46
2022-10-01T00:39:10.413Z,10.76
2022-10-01T00:41:37.092Z,10.76
2022-10-01T00:44:26.650Z,10.74
2022-10-01T00:46:54.867Z,10.74
2022-10-01T00:49:25.792Z,10.51
2022-10-01T00:51:58.394Z,10.70
2022-10-01T00:55:09.341Z,10.70
2022-10-01T00:57:35.702Z,10.70
2022-10-01T01:00:07.249Z,10.60
2022-10-01T01:02:33.670Z,10.09
2022-10-01T01:05:00.597Z,10.31
2022-10-01T01:07:29.213Z,10.51
2022-10-01T01:09:56.139Z,10.50
2022-10-01T01:13:01.666Z,10.47
2022-10-01T01:15:55.668Z,10.41
2022-10-01T01:18:50.438Z,10.13
2022-10-01T01:21:35.723Z,10.43
2022-10-01T01:24:10.273Z,10.41
2022-10-01T01:26:50.272Z,10.39
2022-10-01T01:29:52.948Z,10.36
2022-10-01T01:32:27.954Z,10.36
2022-10-01T01:34:56.803Z,10.18
2022-10-01T01:37:27.461Z,9.28
2022-10-01T01:39:56.922Z,10.30
2022-10-01T01:42:36.996Z,10.34
2022-10-01T01:45:09.722Z,10.34
2022-10-01T01:47:36.857Z,10.30
2022-10-01T01:50:04.693Z,10.05
2022-10-01T01:52:32.639Z,9.70
2022-10-01T01:54:59.206Z,10.26
2022-10-01T01:57:26.279Z,8.64
2022-10-01T01:59:54.285Z,10.31
2022-10-01T02:02:29.747Z,9.51
2022-10-01T02:05:01.987Z,10.03
2022-10-01T02:07:37.163Z,10.23
2022-10-01T02:10:18.841Z,10.25
2022-10-01T02:13:22.070Z,10.23
2022-10-01T02:16:04.266Z,10.31
2022-10-01T02:18:48.030Z,8.71
2022-10-01T02:21:28.565Z,10.27
2022-10-01T02:23:59.084Z,10.24
2022-10-01T02:26:28.204Z,10.22
2022-10-01T02:28:58.874Z,10.20
2022-10-01T02:31:27.660Z,9.86
2022-10-01T02:33:56.437Z,10.23
2022-10-01T02:36:25.855Z,9.91
2022-10-01T02:38:55.745Z,10.25
2022-10-01T02:41:33.981Z,10.23
2022-10-01T02:44:23.247Z,10.18
2022-10-01T02:47:12.197Z,9.74
2022-10-01T02:49:41.289Z,9.90
2022-10-01T02:52:26.174Z,9.70
2022-10-01T02:55:03.847Z,10.19
2022-10-01T02:57:30.348Z,10.16
2022-10-01T02:59:59.883Z,10.18
2022-10-01T03:02:28.173Z,10.16
2022-10-01T03:04:57.150Z,10.18
2022-10-01T03:07:27.866Z,10.21
2022-10-01T03:09:54.526Z,10.21
2022-10-01T03:12:21.222Z,10.19
2022-10-01T03:14:47.654Z,10.18
2022-10-01T03:17:15.195Z,10.16
2022-10-01T03:19:42.449Z,9.79
2022-10-01T03:22:11.767Z,9.98
2022-10-01T03:24:38.068Z,10.21
2022-10-01T03:27:04.525Z,9.81
2022-10-01T03:29:30.995Z,10.17
2022-10-01T03:31:57.286Z,10.16
2022-10-01T03:34:23.779Z,9.57
2022-10-01T03:36:52.090Z,10.21
2022-10-01T03:39:18.793Z,9.57
2022-10-01T03:41:45.206Z,10.19
2022-10-01T03:44:11.562Z,10.18
2022-10-01T03:46:38.030Z,10.17
2022-10-01T03:49:04.554Z,10.03
2022-10-01T03:51:31.592Z,10.23
2022-10-01T03:53:58.422Z,10.21
2022-10-01T03:56:25.111Z,10.22
2022-10-01T03:58:51.674Z,10.21
2022-10-01T04:01:18.165Z,10.21
2022-10-01T04:03:44.509Z,10.19
2022-10-01T04:06:11.324Z,10.23
2022-10-01T04:08:38.626Z,10.24
2022-10-01T04:11:06.237Z,9.88
2022-10-01T04:13:34.169Z,10.12
2022-10-01T04:16:01.766Z,9.62
2022-10-01T04:18:28.418Z,9.81
2022-10-01T04:20:54.765Z,10.30
2022-10-01T04:23:23.205Z,10.27
2022-10-01T04:25:49.874Z,10.25
2022-10-01T04:28:16.789Z,10.31
2022-10-01T04:30:45.001Z,10.30
2022-10-01T04:33:16.497Z,10.31
2022-10-01T04:35:43.457Z,10.33
2022-10-01T04:38:14.447Z,10.34
2022-10-01T04:40:41.285Z,10.39
2022-10-01T04:43:10.913Z,9.80
2022-10-01T04:45:37.853Z,10.34
2022-10-01T04:48:05.147Z,10.12
2022-10-01T04:50:32.121Z,9.79
2022-10-01T04:52:58.422Z,10.42
2022-10-01T04:55:24.883Z,10.43
2022-10-01T04:57:51.281Z,10.49
2022-10-01T05:00:21.673Z,10.47
2022-10-01T05:02:49.514Z,10.29
2022-10-01T05:05:17.884Z,10.43
2022-10-01T05:07:44.682Z,10.37
2022-10-01T05:10:17.086Z,10.23
2022-10-01T05:12:43.785Z,10.69
2022-10-01T05:15:10.836Z,10.72
2022-10-01T05:17:37.158Z,10.71
2022-10-01T05:20:06.578Z,10.72
2022-10-01T05:22:33.223Z,10.72
2022-10-01T05:25:00.298Z,10.75
2022-10-01T05:27:27.615Z,10.46
2022-10-01T05:29:54.038Z,10.52
2022-10-01T05:32:20.373Z,10.78
2022-10-01T05:34:49.976Z,10.80
2022-10-01T05:37:19.753Z,10.81
2022-10-01T05:39:46.090Z,10.85
2022-10-01T05:42:12.412Z,10.41
2022-10-01T05:44:39.930Z,10.83
2022-10-01T05:47:07.093Z,10.87
2022-10-01T05:49:33.866Z,10.85
2022-10-01T05:52:00.903Z,10.45
2022-10-01T05:54:29.496Z,10.87
2022-10-01T05:56:57.011Z,10.88
2022-10-01T05:59:28.460Z,10.90
2022-10-01T06:01:57.954Z,10.44
2022-10-01T06:04:24.407Z,10.68
2022-10-01T06:06:50.823Z,10.78
2022-10-01T06:09:17.313Z,10.58
2022-10-01T06:11:43.694Z,10.52
2022-10-01T06:14:10.022Z,10.68
2022-10-01T06:16:36.378Z,11.16
2022-10-01T06:19:02.896Z,11.00
2022-10-01T06:21:30.274Z,10.79
2022-10-01T06:23:56.607Z,11.42
2022-10-01T06:26:23.200Z,11.14
2022-10-01T06:28:50.383Z,11.64
2022-10-01T06:31:18.137Z,11.65
2022-10-01T06:33:44.584Z,11.67
2022-10-01T06:36:10.984Z,11.75
2022-10-01T06:38:37.389Z,11.71
2022-10-01T06:41:04.894Z,11.83
2022-10-01T06:43:32.583Z,11.73
2022-10-01T06:46:04.086Z,11.72
2022-10-01T06:48:31.409Z,11.37
2022-10-01T06:50:58.804Z,11.95
2022-10-01T06:53:27.500Z,12.01
2022-10-01T06:55:54.211Z,12.04
2022-10-01T06:58:22.735Z,12.04
2022-10-01T07:00:50.386Z,12.06
2022-10-01T07:03:21.580Z,12.09
2022-10-01T07:05:49.901Z,12.11
2022-10-01T07:08:17.633Z,12.09
2022-10-01T07:10:45.403Z,12.08
2022-10-01T07:13:20.847Z,12.05
2022-10-01T07:15:47.182Z,11.72
2022-10-01T07:18:14.024Z,12.14
2022-10-01T07:20:41.204Z,12.14
2022-10-01T07:23:14.050Z,12.03
2022-10-01T07:25:41.744Z,11.60
2022-10-01T07:28:16.090Z,12.11
2022-10-01T07:30:47.517Z,12.18
2022-10-01T07:33:17.818Z,12.21
2022-10-01T07:35:44.173Z,12.07
2022-10-01T07:38:10.525Z,11.87
2022-10-01T07:40:36.884Z,10.80
2022-10-01T07:43:03.278Z,12.04
2022-10-01T07:45:29.691Z,11.86
2022-10-01T07:48:01.391Z,11.90
2022-10-01T07:50:30.415Z,12.48
2022-10-01T07:52:58.138Z,12.58
2022-10-01T07:55:26.879Z,12.24
2022-10-01T07:57:58.981Z,12.67
2022-10-01T08:00:29.526Z,12.56
2022-10-01T08:02:56.373Z,12.43
2022-10-01T08:05:25.667Z,12.76
2022-10-01T08:07:52.296Z,12.26
2022-10-01T08:10:20.212Z,12.80
2022-10-01T08:12:46.715Z,12.86
2022-10-01T08:15:15.986Z,12.90
2022-10-01T08:17:42.966Z,12.69
2022-10-01T08:20:12.923Z,12.68
2022-10-01T08:22:42.066Z,13.06
2022-10-01T08:25:08.731Z,13.20
2022-10-01T08:27:35.326Z,13.30
2022-10-01T08:30:01.617Z,12.93
2022-10-01T08:32:28.161Z,13.25
2022-10-01T08:34:57.345Z,13.36
2022-10-01T08:37:28.278Z,13.62
2022-10-01T08:39:56.198Z,12.93
2022-10-01T08:42:25.538Z,13.68
2022-10-01T08:44:52.721Z,13.50
2022-10-01T08:47:33.830Z,13.68
2022-10-01T08:50:05.850Z,13.80
2022-10-01T08:52:40.123Z,13.64
2022-10-01T08:55:10.565Z,13.72
2022-10-01T08:57:47.078Z,13.61
2022-10-01T09:00:15.362Z,12.77
2022-10-01T09:02:43.465Z,14.07
2022-10-01T09:05:24.777Z,13.87
2022-10-01T09:07:53.908Z,14.42
2022-10-01T09:10:29.424Z,14.63
2022-10-01T09:13:14.305Z,14.63
2022-10-01T09:16:25.333Z,14.61
2022-10-01T09:19:16.990Z,14.44
2022-10-01T09:22:04.317Z,14.22
2022-10-01T09:24:44.440Z,14.02
2022-10-01T09:27:17.636Z,13.84
2022-10-01T09:30:07.345Z,13.66
2022-10-01T09:32:41.589Z,13.05
2022-10-01T09:35:20.914Z,13.38
2022-10-01T09:38:11.967Z,13.38
2022-10-01T09:40:54.992Z,13.33
2022-10-01T09:43:23.800Z,13.38
2022-10-01T09:45:51.596Z,13.41
2022-10-01T09:48:48.239Z,13.50
2022-10-01T09:51:40.671Z,13.62
2022-10-01T09:54:33.879Z,13.68
2022-10-01T09:57:13.912Z,14.09
2022-10-01T10:00:02.590Z,14.02
2022-10-01T10:02:33.203Z,14.32
2022-10-01T10:05:05.533Z,14.64
2022-10-01T10:07:34.668Z,14.89
2022-10-01T10:10:09.931Z,15.11
2022-10-01T10:12:36.349Z,15.27
2022-10-01T10:15:16.415Z,15.81
2022-10-01T10:17:46.297Z,16.03
2022-10-01T10:20:32.981Z,16.58
2022-10-01T10:23:07.102Z,16.28
2022-10-01T10:25:33.583Z,16.27
2022-10-01T10:28:02.383Z,15.68
2022-10-01T10:30:29.440Z,15.73
2022-10-01T10:33:04.537Z,15.83
2022-10-01T10:35:31.732Z,15.95
2022-10-01T10:37:59.118Z,15.93
2022-10-01T10:40:40.418Z,16.42
2022-10-01T10:43:22.761Z,16.33
2022-10-01T10:45:55.951Z,16.28
2022-10-01T10:48:28.894Z,16.50
2022-10-01T10:51:01.700Z,16.37
2022-10-01T10:53:31.758Z,17.09
2022-10-01T10:56:01.019Z,17.21
2022-10-01T10:58:30.645Z,17.43
2022-10-01T11:01:12.037Z,17.36
2022-10-01T11:03:44.327Z,16.88
2022-10-01T11:06:14.689Z,17.40
2022-10-01T11:08:42.702Z,17.59
2022-10-01T11:11:33.809Z,17.72
2022-10-01T11:14:28.365Z,16.53
2022-10-01T11:17:07.122Z,17.66
2022-10-01T11:19:42.373Z,17.52
2022-10-01T11:22:27.405Z,17.64
2022-10-01T11:25:03.557Z,17.69
2022-10-01T11:28:05.687Z,17.47
2022-10-01T11:30:35.095Z,17.18
2022-10-01T11:33:03.428Z,17.11
2022-10-01T11:35:37.125Z,17.15
2022-10-01T11:38:18.658Z,16.93
2022-10-01T11:40:51.351Z,16.94
2022-10-01T11:43:26.505Z,17.26
2022-10-01T11:46:00.190Z,17.01
2022-10-01T11:48:33.608Z,16.56
2022-10-01T11:51:09.204Z,17.18
2022-10-01T11:53:45.350Z,17.39
2022-10-01T11:56:39.647Z,17.33
2022-10-01T11:59:17.747Z,17.64
2022-10-01T12:02:15.907Z,17.33
2022-10-01T12:04:58.024Z,17.04
2022-10-01T12:07:43.049Z,16.69
2022-10-01T12:10:38.728Z,16.68
2022-10-01T12:13:32.517Z,16.19
2022-10-01T12:16:10.446Z,16.10
2022-10-01T12:18:55.109Z,16.04
2022-10-01T12:21:32.415Z,15.71
2022-10-01T12:24:06.990Z,14.44
2022-10-01T12:26:53.027Z,14.82
2022-10-01T12:29:42.284Z,16.24
2022-10-01T12:32:22.573Z,16.86
2022-10-01T12:35:02.603Z,17.25
2022-10-01T12:37:50.924Z,17.59
2022-10-01T12:40:44.328Z,17.68
2022-10-01T12:43:13.942Z,17.94
2022-10-01T12:45:56.034Z,18.10
2022-10-01T12:48:32.095Z,18.28
2022-10-01T12:51:13.785Z,18.30
2022-10-01T12:53:58.258Z,18.31
2022-10-01T12:56:50.923Z,18.10
2022-10-01T12:59:29.216Z,18.50
2022-10-01T13:02:12.842Z,18.56
2022-10-01T13:05:09.591Z,18.67
2022-10-01T13:07:46.840Z,18.46
2022-10-01T13:10:29.957Z,18.71
2022-10-01T13:13:07.741Z,18.80
2022-10-01T13:15:41.061Z,18.98
2022-10-01T13:18:19.574Z,19.03
2022-10-01T13:21:25.098Z,19.17
2022-10-01T13:24:03.190Z,18.72
2022-10-01T13:26:37.289Z,19.25
2022-10-01T13:29:14.212Z,19.21
2022-10-01T13:32:04.536Z,19.15
2022-10-01T13:34:40.217Z,19.23
2022-10-01T13:37:29.626Z,19.02
2022-10-01T13:39:57.536Z,19.13
2022-10-01T13:42:30.777Z,18.90
2022-10-01T13:45:03.225Z,18.81
2022-10-01T13:47:29.672Z,18.98
2022-10-01T13:50:00.702Z,18.48
2022-10-01T13:52:27.974Z,19.00
2022-10-01T13:54:56.309Z,19.00
2022-10-01T13:57:29.004Z,18.96
2022-10-01T14:00:18.334Z,19.08
2022-10-01T14:02:59.425Z,19.22
2022-10-01T14:05:38.944Z,19.22
2022-10-01T14:08:12.180Z,19.24
2022-10-01T14:11:04.167Z,18.75
2022-10-01T14:13:49.952Z,18.95
2022-10-01T14:16:17.196Z,19.31
2022-10-01T14:18:47.658Z,19.17
2022-10-01T14:21:36.591Z,19.05
2022-10-01T14:24:33.625Z,19.23
2022-10-01T14:27:22.817Z,18.89
2022-10-01T14:30:07.290Z,19.37
2022-10-01T14:33:06.174Z,19.30
2022-10-01T14:35:38.400Z,19.14
2022-10-01T14:38:12.681Z,18.39
2022-10-01T14:40:43.521Z,19.08
2022-10-01T14:43:15.756Z,19.14
2022-10-01T14:46:03.042Z,19.38
2022-10-01T14:48:32.296Z,19.22
2022-10-01T14:51:05.472Z,19.22
2022-10-01T14:53:42.989Z,18.91
2022-10-01T14:56:14.060Z,18.90
2022-10-01T14:58:58.027Z,18.96
2022-10-01T15:01:25.288Z,18.67
2022-10-01T15:03:52.827Z,18.47
2022-10-01T15:06:23.218Z,17.85
2022-10-01T15:08:51.969Z,17.47
2022-10-01T15:11:22.861Z,16.87
2022-10-01T15:13:52.820Z,17.13
2022-10-01T15:16:24.853Z,16.86
2022-10-01T15:18:53.374Z,16.05
2022-10-01T15:21:23.018Z,16.38
2022-10-01T15:23:49.903Z,16.08
2022-10-01T15:26:22.466Z,15.74
2022-10-01T15:28:49.369Z,16.23
2022-10-01T15:31:16.751Z,16.27
2022-10-01T15:33:43.558Z,16.46
2022-10-01T15:36:18.354Z,16.49
2022-10-01T15:38:48.786Z,16.52
2022-10-01T15:41:31.570Z,16.02
2022-10-01T15:44:02.537Z,16.14
2022-10-01T15:46:33.202Z,16.12
2022-10-01T15:49:20.281Z,16.03
2022-10-01T15:52:21.540Z,15.94
2022-10-01T15:54:56.370Z,15.42
2022-10-01T15:57:25.629Z,15.76
2022-10-01T15:59:54.060Z,15.58
2022-10-01T16:02:26.022Z,15.21
2022-10-01T16:04:55.888Z,15.67
2022-10-01T16:07:29.412Z,15.19
2022-10-01T16:10:00.478Z,15.19
2022-10-01T16:12:28.401Z,15.24
2022-10-01T16:15:05.028Z,15.41
2022-10-01T16:17:38.118Z,15.47
2022-10-01T16:20:16.517Z,13.73
2022-10-01T16:22:43.443Z,15.02
2022-10-01T16:25:19.495Z,15.48
2022-10-01T16:28:20.151Z,15.37
2022-10-01T16:30:51.201Z,15.32
2022-10-01T16:33:17.605Z,15.24
2022-10-01T16:35:47.793Z,15.21
2022-10-01T16:38:14.784Z,15.07
2022-10-01T16:40:43.679Z,14.99
2022-10-01T16:43:19.788Z,13.98
2022-10-01T16:45:46.294Z,14.90
2022-10-01T16:54:53.917Z,14.91
2022-10-01T17:00:15.236Z,14.74
2022-10-01T17:05:35.639Z,14.60
2022-10-01T17:10:59.819Z,14.57
2022-10-01T17:16:19.462Z,14.01
2022-10-01T17:21:42.085Z,13.90
2022-10-01T17:27:02.959Z,13.93
2022-10-01T17:32:22.224Z,14.24
2022-10-01T17:37:41.028Z,13.90
2022-10-01T17:42:59.285Z,13.60
2022-10-01T17:48:18.888Z,13.52
2022-10-01T17:50:48.002Z,13.46
2022-10-01T17:53:15.079Z,12.75
2022-10-01T17:55:42.277Z,13.32
2022-10-01T17:58:08.673Z,13.28
2022-10-01T18:00:35.337Z,13.00
2022-10-01T18:03:01.671Z,12.84
2022-10-01T18:05:28.102Z,13.08
2022-10-01T18:07:54.425Z,12.63
2022-10-01T18:10:20.757Z,12.65
2022-10-01T18:21:18.354Z,12.41
2022-10-01T18:23:44.752Z,12.52
2022-10-01T18:26:11.387Z,12.73
2022-10-01T18:32:39.249Z,12.67
2022-10-01T18:35:25.013Z,12.62
2022-10-01T18:37:55.844Z,12.56
2022-10-01T18:40:27.408Z,11.63
2022-10-01T18:43:15.778Z,11.99
2022-10-01T18:46:00.785Z,12.38
2022-10-01T18:48:37.146Z,11.94
2022-10-01T18:51:09.063Z,12.40
2022-10-01T18:53:56.197Z,12.24
2022-10-01T18:56:36.261Z,11.96
2022-10-01T18:59:24.291Z,12.27
2022-10-01T19:02:14.138Z,12.25
2022-10-01T19:05:15.141Z,11.97
2022-10-01T19:08:08.915Z,11.16
2022-10-01T19:10:50.350Z,11.66
2022-10-01T19:13:29.311Z,11.75
2022-10-01T19:16:03.719Z,12.06
2022-10-01T19:18:52.276Z,12.07
2022-10-01T19:21:28.298Z,11.72
2022-10-01T19:24:27.238Z,11.97
2022-10-01T19:27:14.493Z,11.95
2022-10-01T19:30:01.636Z,11.84
2022-10-01T19:33:08.772Z,11.97
2022-10-01T19:35:50.461Z,11.73
2022-10-01T19:38:33.695Z,11.69
2022-10-01T19:41:08.588Z,11.88
2022-10-01T19:43:50.694Z,11.40
2022-10-01T19:46:31.855Z,11.84
2022-10-01T19:49:14.663Z,11.63
2022-10-01T19:51:46.460Z,11.14
2022-10-01T19:54:22.638Z,11.60
2022-10-01T19:56:53.758Z,11.38
2022-10-01T19:59:21.878Z,11.48
2022-10-01T20:02:03.504Z,11.44
2022-10-01T20:04:51.765Z,11.39
2022-10-01T20:07:24.521Z,10.64
2022-10-01T20:10:05.978Z,11.28
2022-10-01T20:12:45.383Z,10.59
2022-10-01T20:15:21.697Z,11.20
2022-10-01T20:18:04.990Z,9.98
2022-10-01T20:21:05.558Z,10.86
2022-10-01T20:27:31.024Z,10.84
2022-10-01T20:30:10.680Z,10.60
2022-10-01T20:32:49.181Z,10.85
2022-10-01T20:35:27.805Z,10.63
2022-10-01T20:38:04.240Z,10.79
2022-10-01T20:40:40.000Z,10.51
2022-10-01T20:43:15.946Z,9.94
2022-10-01T20:45:45.515Z,10.61
2022-10-01T20:48:27.567Z,10.42
2022-10-01T20:51:01.412Z,10.45
2022-10-01T20:53:53.485Z,10.76
2022-10-01T20:56:37.940Z,10.73
2022-10-01T20:59:18.103Z,10.73
2022-10-01T21:02:02.178Z,10.69
2022-10-01T21:04:45.573Z,10.72
2022-10-01T21:07:36.643Z,10.73
2022-10-01T21:10:39.654Z,10.47
2022-10-01T21:13:19.768Z,10.65
2022-10-01T21:16:04.867Z,9.94
2022-10-01T21:19:05.427Z,10.67
2022-10-01T21:21:35.727Z,10.64
2022-10-01T21:24:23.922Z,10.66
2022-10-01T21:27:20.852Z,10.15
2022-10-01T21:29:50.435Z,10.65
2022-10-01T21:33:01.938Z,10.27
2022-10-01T21:35:50.006Z,10.65
2022-10-01T21:38:36.929Z,10.34
2022-10-01T21:41:24.491Z,10.63
2022-10-01T21:44:30.841Z,10.63
2022-10-01T21:47:25.213Z,10.66
2022-10-01T21:50:06.579Z,10.67
2022-10-01T21:52:56.135Z,10.67
2022-10-01T21:55:40.694Z,10.67
2022-10-01T21:58:49.722Z,10.63
2022-10-01T22:01:30.525Z,10.64
2022-10-01T22:04:17.425Z,10.44
2022-10-01T22:09:55.407Z,10.61
2022-10-01T22:12:28.098Z,10.34
2022-10-01T22:14:57.071Z,10.62
2022-10-01T22:17:36.413Z,10.62
2022-10-01T22:20:05.648Z,10.66
2022-10-01T22:22:44.170Z,10.27
2022-10-01T22:25:15.071Z,10.69
2022-10-01T22:28:03.370Z,10.67
2022-10-01T22:30:44.249Z,10.37
2022-10-01T22:33:19.817Z,10.67
2022-10-01T22:36:57.790Z,10.72
2022-10-01T22:39:35.063Z,10.52
2022-10-01T22:42:55.590Z,9.97
2022-10-01T22:45:35.610Z,10.76
2022-10-01T22:48:25.958Z,10.83
2022-10-01T22:51:37.669Z,10.82
2022-10-01T22:54:36.444Z,10.83
2022-10-01T22:57:43.700Z,10.88
2022-10-01T23:00:15.960Z,10.88
2022-10-01T23:04:10.177Z,10.24
2022-10-01T23:06:13.095Z,9.19
2022-10-01T23:09:07.441Z,10.94
2022-10-01T23:15:20.164Z,11.18
2022-10-01T23:18:36.036Z,11.27
2022-10-01T23:21:50.881Z,11.27
2022-10-01T23:24:48.498Z,11.34
2022-10-01T23:27:45.218Z,10.71
2022-10-01T23:33:54.117Z,11.38
2022-10-01T23:36:43.572Z,10.67
2022-10-01T23:39:34.623Z,11.31
2022-10-01T23:42:25.446Z,11.28
2022-10-01T23:45:33.232Z,11.25
2022-10-01T23:48:29.554Z,11.22
2022-10-01T23:51:40.565Z,11.20
2022-10-01T23:54:27.355Z,11.18
2022-10-01T23:57:19.029Z,10.78
